createdAt,value
2023-05-08T00:00:24.021Z,17.90
2023-05-08T00:02:52.136Z,19.52
2023-05-08T00:05:20.475Z,18.85
2023-05-08T00:07:48.592Z,18.88
2023-05-08T00:10:18.046Z,19.70
2023-05-08T00:12:46.341Z,19.05
2023-05-08T00:15:14.432Z,20.98
2023-05-08T00:17:42.660Z,19.63
2023-05-08T00:20:12.069Z,19.38
2023-05-08T00:22:41.375Z,22.52
2023-05-08T00:25:10.172Z,18.83
2023-05-08T00:27:39.746Z,21.38
2023-05-08T00:30:09.346Z,20.55
2023-05-08T00:32:37.568Z,19.33
2023-05-08T00:35:06.211Z,20.25
2023-05-08T00:37:34.212Z,20.58
2023-05-08T00:40:02.245Z,19.48
2023-05-08T00:42:30.332Z,20.80
2023-05-08T00:44:59.831Z,19.70
2023-05-08T00:47:28.056Z,18.55
2023-05-08T00:49:56.119Z,20.17
2023-05-08T00:52:24.393Z,19.33
2023-05-08T00:54:52.920Z,23.73
2023-05-08T00:57:21.066Z,18.70
2023-05-08T00:59:50.343Z,21.70
2023-05-08T01:02:22.249Z,19.13
2023-05-08T01:04:52.084Z,17.80
2023-05-08T01:07:20.373Z,18.55
2023-05-08T01:09:48.451Z,20.23
2023-05-08T01:12:21.805Z,21.40
2023-05-08T01:15:06.636Z,19.75
2023-05-08T01:17:47.213Z,19.50
2023-05-08T01:20:24.686Z,19.05
2023-05-08T01:23:33.487Z,19.77
2023-05-08T01:26:52.914Z,21.15
2023-05-08T01:29:53.946Z,19.98
2023-05-08T01:32:26.477Z,23.45
2023-05-08T01:35:04.982Z,20.50
2023-05-08T01:37:39.368Z,20.92
2023-05-08T01:40:14.263Z,20.65
2023-05-08T01:42:50.447Z,23.00
2023-05-08T01:45:26.851Z,23.17
2023-05-08T01:48:05.269Z,20.02
2023-05-08T01:50:37.678Z,21.45
2023-05-08T01:53:14.672Z,22.27
2023-05-08T01:55:45.236Z,23.95
2023-05-08T01:58:16.306Z,22.30
2023-05-08T02:00:49.264Z,22.15
2023-05-08T02:03:19.954Z,21.33
2023-05-08T02:05:52.375Z,21.35
2023-05-08T02:08:22.940Z,22.10
2023-05-08T02:10:52.959Z,23.25
2023-05-08T02:13:23.654Z,22.35
2023-05-08T02:15:55.732Z,21.73
2023-05-08T02:18:26.896Z,23.85
2023-05-08T02:20:57.435Z,21.10
2023-05-08T02:23:27.658Z,23.52
2023-05-08T02:25:57.177Z,22.77
2023-05-08T02:28:26.265Z,21.90
2023-05-08T02:30:55.114Z,23.15
2023-05-08T02:33:26.061Z,21.45
2023-05-08T02:35:59.425Z,21.50
2023-05-08T02:38:28.224Z,22.63
2023-05-08T02:41:02.056Z,22.38
2023-05-08T02:43:30.409Z,24.63
2023-05-08T02:46:09.282Z,24.38
2023-05-08T02:48:45.055Z,24.40
2023-05-08T02:51:22.305Z,22.25
2023-05-08T02:53:55.992Z,22.83
2023-05-08T02:56:32.887Z,25.02
2023-05-08T02:59:09.367Z,25.00
2023-05-08T03:01:47.095Z,24.38
2023-05-08T03:04:25.741Z,24.27
2023-05-08T03:06:58.086Z,25.20
2023-05-08T03:09:29.801Z,25.00
2023-05-08T03:12:03.823Z,24.10
2023-05-08T03:14:37.520Z,23.48
2023-05-08T03:17:09.743Z,23.70
2023-05-08T03:19:43.185Z,23.50
2023-05-08T03:22:12.652Z,24.42
2023-05-08T03:24:45.415Z,26.63
2023-05-08T03:27:15.057Z,26.08
2023-05-08T03:29:45.076Z,26.42
2023-05-08T03:32:14.910Z,25.83
2023-05-08T03:34:44.894Z,26.70
2023-05-08T03:37:13.306Z,26.45
2023-05-08T03:39:41.436Z,26.15
2023-05-08T03:42:09.742Z,26.35
2023-05-08T03:44:39.248Z,26.85
2023-05-08T03:47:07.994Z,26.27
2023-05-08T03:49:40.087Z,25.98
2023-05-08T03:52:09.816Z,24.60
2023-05-08T03:54:37.918Z,25.77
2023-05-08T03:57:06.202Z,26.05
2023-05-08T03:59:43.632Z,24.80
2023-05-08T04:02:21.113Z,29.58
2023-05-08T04:05:06.671Z,24.15
2023-05-08T04:07:47.511Z,24.33
2023-05-08T04:10:25.688Z,22.80
2023-05-08T04:13:04.730Z,25.65
2023-05-08T04:15:36.249Z,24.90
2023-05-08T04:18:09.243Z,23.45
2023-05-08T04:20:42.968Z,24.38
2023-05-08T04:23:16.823Z,26.60
2023-05-08T04:28:13.987Z,24.35
2023-05-08T04:30:42.142Z,24.73
2023-05-08T04:33:11.180Z,24.27
2023-05-08T04:35:39.335Z,25.10
2023-05-08T04:38:07.524Z,23.00
2023-05-08T04:40:36.947Z,23.83
2023-05-08T04:43:05.107Z,22.80
2023-05-08T04:45:36.246Z,23.95
2023-05-08T04:48:04.407Z,24.73
2023-05-08T04:50:32.474Z,23.58
2023-05-08T04:53:00.469Z,24.27
2023-05-08T04:55:28.605Z,24.85
2023-05-08T04:57:58.052Z,23.90
2023-05-08T05:00:26.153Z,24.33
2023-05-08T05:02:54.478Z,24.65
2023-05-08T05:05:22.674Z,23.48
2023-05-08T05:07:50.705Z,26.33
2023-05-08T05:10:18.944Z,25.75
2023-05-08T05:12:47.077Z,23.35
2023-05-08T05:15:16.818Z,28.33
2023-05-08T05:17:44.970Z,25.25
2023-05-08T05:20:14.248Z,23.15
2023-05-08T05:22:42.578Z,22.17
2023-05-08T05:25:11.697Z,25.90
2023-05-08T05:27:39.991Z,22.00
2023-05-08T05:30:09.391Z,25.08
2023-05-08T05:32:38.890Z,24.90
2023-05-08T05:35:08.167Z,24.60
2023-05-08T05:37:36.517Z,26.50
2023-05-08T05:40:05.130Z,25.52
2023-05-08T05:42:33.241Z,24.73
2023-05-08T05:45:02.073Z,26.13
2023-05-08T05:47:32.428Z,26.02
2023-05-08T05:50:02.091Z,24.63
2023-05-08T05:52:30.303Z,26.55
2023-05-08T05:54:58.383Z,23.95
2023-05-08T05:57:26.430Z,24.08
2023-05-08T05:59:55.043Z,25.35
2023-05-08T06:02:23.315Z,25.80
2023-05-08T06:04:52.761Z,24.85
2023-05-08T06:07:22.402Z,25.25
2023-05-08T06:09:51.266Z,27.30
2023-05-08T06:12:19.399Z,24.20
2023-05-08T06:14:47.739Z,26.83
2023-05-08T06:17:15.835Z,24.70
2023-05-08T06:19:44.027Z,24.67
2023-05-08T06:22:12.146Z,25.08
2023-05-08T06:24:41.724Z,23.42
2023-05-08T06:27:09.934Z,24.20
2023-05-08T06:29:38.008Z,24.60
2023-05-08T06:32:06.697Z,24.83
2023-05-08T06:34:37.010Z,24.25
2023-05-08T06:37:05.125Z,24.02
2023-05-08T06:39:33.439Z,26.63
2023-05-08T06:42:03.629Z,26.92
2023-05-08T06:44:31.746Z,33.95
2023-05-08T06:47:02.518Z,30.65
2023-05-08T06:49:30.708Z,30.38
2023-05-08T06:51:58.812Z,31.98
2023-05-08T06:54:29.332Z,45.38
2023-05-08T06:56:57.510Z,38.47
2023-05-08T06:59:27.054Z,38.92
2023-05-08T07:01:55.196Z,38.40
2023-05-08T07:04:23.487Z,33.88
2023-05-08T07:06:51.788Z,38.13
2023-05-08T07:09:22.119Z,36.67
2023-05-08T07:11:50.260Z,37.25
2023-05-08T07:14:18.394Z,36.78
2023-05-08T07:16:47.912Z,37.38
2023-05-08T07:19:16.030Z,37.92
2023-05-08T07:21:46.211Z,42.10
2023-05-08T07:24:14.405Z,43.30
2023-05-08T07:26:42.551Z,38.95
2023-05-08T07:29:10.711Z,40.03
2023-05-08T07:31:42.565Z,40.80
2023-05-08T07:34:12.095Z,42.90
2023-05-08T07:36:40.244Z,38.03
2023-05-08T07:39:08.400Z,38.83
2023-05-08T07:41:37.129Z,36.38
2023-05-08T07:44:05.269Z,38.47
2023-05-08T07:46:33.360Z,35.80
2023-05-08T07:49:01.555Z,36.78
2023-05-08T07:51:31.751Z,35.20
2023-05-08T07:53:59.807Z,36.67
2023-05-08T07:56:28.478Z,37.55
2023-05-08T07:58:56.721Z,34.70
2023-05-08T08:01:24.783Z,35.53
2023-05-08T08:03:54.386Z,38.83
2023-05-08T08:06:22.569Z,40.88
2023-05-08T08:08:51.979Z,41.80
2023-05-08T08:11:20.012Z,38.67
2023-05-08T08:13:48.181Z,38.10
2023-05-08T08:16:16.267Z,36.28
2023-05-08T08:18:44.367Z,37.13
2023-05-08T08:21:15.550Z,40.92
2023-05-08T08:23:43.616Z,39.45
2023-05-08T08:26:13.028Z,40.30
2023-05-08T08:28:41.031Z,38.90
2023-05-08T08:31:09.368Z,40.70
2023-05-08T08:33:37.436Z,40.40
2023-05-08T08:36:06.313Z,40.72
2023-05-08T08:38:34.384Z,42.15
2023-05-08T08:41:03.274Z,45.35
2023-05-08T08:43:32.716Z,39.42
2023-05-08T08:46:01.140Z,38.45
2023-05-08T08:48:32.842Z,38.20
2023-05-08T08:51:13.760Z,41.42
2023-05-08T08:53:45.695Z,40.25
2023-05-08T08:56:16.274Z,42.33
2023-05-08T08:58:51.371Z,41.15
2023-05-08T09:01:21.768Z,43.08
2023-05-08T09:03:50.248Z,40.67
2023-05-08T09:06:18.477Z,45.42
2023-05-08T09:08:47.329Z,41.22
2023-05-08T09:11:15.621Z,38.38
2023-05-08T09:13:43.709Z,38.30
2023-05-08T09:16:13.168Z,39.65
2023-05-08T09:18:41.314Z,41.53
2023-05-08T09:21:11.627Z,42.20
2023-05-08T09:23:56.299Z,39.97
2023-05-08T09:26:36.114Z,42.70
2023-05-08T09:29:12.523Z,43.72
2023-05-08T09:31:43.415Z,40.47
2023-05-08T09:34:12.979Z,42.15
2023-05-08T09:36:42.155Z,42.55
2023-05-08T09:39:13.107Z,40.53
2023-05-08T09:41:41.409Z,42.50
2023-05-08T09:44:09.527Z,39.38
2023-05-08T09:46:37.611Z,36.88
2023-05-08T09:49:07.065Z,40.55
2023-05-08T09:51:35.270Z,39.60
2023-05-08T09:54:05.878Z,40.30
2023-05-08T09:56:35.693Z,39.58
2023-05-08T09:59:06.486Z,38.50
2023-05-08T10:01:36.003Z,35.72
2023-05-08T10:04:06.761Z,35.03
2023-05-08T10:06:36.464Z,36.92
2023-05-08T10:09:08.784Z,37.92
2023-05-08T10:11:37.532Z,37.50
2023-05-08T10:14:05.650Z,34.72
2023-05-08T10:16:40.140Z,32.63
2023-05-08T10:19:14.478Z,35.80
2023-05-08T10:21:44.964Z,35.90
2023-05-08T10:24:17.474Z,36.88
2023-05-08T10:27:05.629Z,34.15
2023-05-08T10:29:42.819Z,35.03
2023-05-08T10:32:11.782Z,32.72
2023-05-08T10:34:42.852Z,35.67
2023-05-08T10:37:11.943Z,36.25
2023-05-08T10:39:41.491Z,34.65
2023-05-08T10:42:10.049Z,34.75
2023-05-08T10:44:39.526Z,37.85
2023-05-08T10:47:17.469Z,37.28
2023-05-08T10:49:56.682Z,38.72
2023-05-08T10:52:35.264Z,37.13
2023-05-08T10:55:17.746Z,40.00
2023-05-08T10:58:08.126Z,40.22
2023-05-08T11:01:14.847Z,38.80
2023-05-08T11:03:46.068Z,41.90
2023-05-08T11:06:38.583Z,42.20
2023-05-08T11:09:06.915Z,41.33
2023-05-08T11:11:40.065Z,38.25
2023-05-08T11:14:17.443Z,32.92
2023-05-08T11:17:09.753Z,28.92
2023-05-08T11:19:39.241Z,29.57
2023-05-08T11:22:17.873Z,29.60
2023-05-08T11:24:51.535Z,29.65
2023-05-08T11:27:19.815Z,30.23
2023-05-08T11:30:20.217Z,32.42
2023-05-08T11:32:58.484Z,32.28
2023-05-08T11:35:42.903Z,33.40
2023-05-08T11:38:20.950Z,38.40
2023-05-08T11:40:58.240Z,39.85
2023-05-08T11:43:28.505Z,37.58
2023-05-08T11:46:03.092Z,36.90
2023-05-08T11:48:31.363Z,36.58
2023-05-08T11:51:00.624Z,37.80
2023-05-08T11:53:31.536Z,36.30
2023-05-08T11:56:02.889Z,37.58
2023-05-08T11:58:31.287Z,37.60
2023-05-08T12:00:59.669Z,37.78
2023-05-08T12:03:27.878Z,37.70
2023-05-08T12:06:00.307Z,38.15
2023-05-08T12:08:28.584Z,39.85
2023-05-08T12:10:58.683Z,39.65
2023-05-08T12:13:28.547Z,40.75
2023-05-08T12:15:58.545Z,40.85
2023-05-08T12:18:30.585Z,39.08
2023-05-08T12:21:01.906Z,40.38
2023-05-08T12:23:32.080Z,41.25
2023-05-08T12:26:02.399Z,41.22
2023-05-08T12:28:32.340Z,40.80
2023-05-08T12:31:00.492Z,41.53
2023-05-08T12:33:29.122Z,40.60
2023-05-08T12:35:57.385Z,42.08
2023-05-08T12:38:28.164Z,44.30
2023-05-08T12:40:56.660Z,43.08
2023-05-08T12:43:34.645Z,42.50
2023-05-08T12:46:03.380Z,41.85
2023-05-08T12:48:32.497Z,43.17
2023-05-08T12:51:04.971Z,45.00
2023-05-08T12:53:34.310Z,44.20
2023-05-08T12:56:04.557Z,42.78
2023-05-08T12:58:35.792Z,44.28
2023-05-08T13:01:10.223Z,45.33
2023-05-08T13:03:38.892Z,44.38
2023-05-08T13:06:07.884Z,43.78
2023-05-08T13:08:38.152Z,41.65
2023-05-08T13:11:07.742Z,42.63
2023-05-08T13:13:38.225Z,41.88
2023-05-08T13:16:08.237Z,42.15
2023-05-08T13:18:37.255Z,42.83
2023-05-08T13:21:08.630Z,44.13
2023-05-08T13:23:37.073Z,41.35
2023-05-08T13:26:05.473Z,41.08
2023-05-08T13:28:33.583Z,39.33
2023-05-08T13:31:03.052Z,39.03
2023-05-08T13:33:31.118Z,39.17
2023-05-08T13:35:59.171Z,38.22
2023-05-08T13:38:27.216Z,35.97
2023-05-08T13:40:55.308Z,37.60
2023-05-08T13:43:23.368Z,37.75
2023-05-08T13:45:54.827Z,36.67
2023-05-08T13:48:24.340Z,34.97
2023-05-08T13:50:52.510Z,35.92
2023-05-08T13:53:20.574Z,36.10
2023-05-08T13:55:48.663Z,34.92
2023-05-08T13:58:16.774Z,36.92
2023-05-08T14:00:47.684Z,36.80
2023-05-08T14:03:15.957Z,33.75
2023-05-08T14:05:45.527Z,31.73
2023-05-08T14:08:13.572Z,32.72
2023-05-08T14:10:41.640Z,33.20
2023-05-08T14:13:12.801Z,32.70
2023-05-08T14:15:42.050Z,33.45
2023-05-08T14:18:10.239Z,31.48
2023-05-08T14:20:40.323Z,33.20
2023-05-08T14:23:09.762Z,33.17
2023-05-08T14:25:37.905Z,32.65
2023-05-08T14:28:06.390Z,32.17
2023-05-08T14:30:34.459Z,31.55
2023-05-08T14:33:02.575Z,33.80
2023-05-08T14:35:30.631Z,32.70
2023-05-08T14:37:58.790Z,33.28
2023-05-08T14:40:28.246Z,31.92
2023-05-08T14:42:56.350Z,32.90
2023-05-08T14:45:24.473Z,29.38
2023-05-08T14:47:52.535Z,29.98
2023-05-08T14:50:20.630Z,31.90
2023-05-08T14:52:48.704Z,30.17
2023-05-08T14:55:20.954Z,31.27
2023-05-08T14:57:53.017Z,30.85
2023-05-08T15:00:21.636Z,32.28
2023-05-08T15:02:49.864Z,32.63
2023-05-08T15:05:20.193Z,35.47
2023-05-08T15:08:06.687Z,31.77
2023-05-08T15:10:34.785Z,31.95
2023-05-08T15:13:04.440Z,32.90
2023-05-08T15:15:32.703Z,31.98
2023-05-08T15:18:00.754Z,34.30
2023-05-08T15:20:29.002Z,33.10
2023-05-08T15:22:57.072Z,33.13
2023-05-08T15:25:25.793Z,34.08
2023-05-08T15:27:53.920Z,34.85
2023-05-08T15:30:23.648Z,32.65
2023-05-08T15:32:52.793Z,32.63
2023-05-08T15:35:21.142Z,32.80
2023-05-08T15:37:49.268Z,33.15
2023-05-08T15:40:17.465Z,32.95
2023-05-08T15:42:45.562Z,33.30
2023-05-08T15:45:13.916Z,31.80
2023-05-08T15:47:43.607Z,28.92
2023-05-08T15:50:12.373Z,32.03
2023-05-08T15:52:40.494Z,31.35
2023-05-08T15:55:11.935Z,29.38
2023-05-08T15:57:40.190Z,28.25
2023-05-08T16:00:09.618Z,26.13
2023-05-08T16:02:37.757Z,27.35
2023-05-08T16:05:08.007Z,28.70
2023-05-08T16:07:36.124Z,26.00
2023-05-08T16:10:07.774Z,25.10
2023-05-08T16:12:36.001Z,27.58
2023-05-08T16:15:04.059Z,26.00
2023-05-08T16:17:32.172Z,25.58
2023-05-08T16:20:00.736Z,25.20
2023-05-08T16:22:30.275Z,24.13
2023-05-08T16:24:58.590Z,25.00
2023-05-08T16:27:26.715Z,24.25
2023-05-08T16:29:54.782Z,25.65
2023-05-08T16:32:22.911Z,26.08
2023-05-08T16:34:50.948Z,26.05
2023-05-08T16:37:19.011Z,26.33
2023-05-08T16:39:48.488Z,25.42
2023-05-08T16:42:18.749Z,26.13
2023-05-08T16:44:46.746Z,26.35
2023-05-08T16:47:14.883Z,26.95
2023-05-08T16:49:42.953Z,27.30
2023-05-08T16:52:11.019Z,27.30
2023-05-08T16:54:39.559Z,26.63
2023-05-08T16:57:09.005Z,25.67
2023-05-08T16:59:37.369Z,27.08
2023-05-08T17:02:05.609Z,31.40
2023-05-08T17:04:33.724Z,29.48
2023-05-08T17:07:01.809Z,31.92
2023-05-08T17:09:33.083Z,28.95
2023-05-08T17:12:02.286Z,30.52
2023-05-08T17:14:35.098Z,28.77
2023-05-08T17:17:06.499Z,24.17
2023-05-08T17:19:34.695Z,21.27
2023-05-08T17:22:02.960Z,20.40
2023-05-08T17:24:35.634Z,19.15
2023-05-08T17:27:03.663Z,18.77
2023-05-08T17:29:31.690Z,18.90
2023-05-08T17:32:01.349Z,19.02
2023-05-08T17:34:29.504Z,18.42
2023-05-08T17:37:00.419Z,18.35
2023-05-08T17:39:28.450Z,20.45
2023-05-08T17:41:56.908Z,22.17
2023-05-08T17:44:24.975Z,22.67
2023-05-08T17:46:53.126Z,23.15
2023-05-08T17:49:22.674Z,23.73
2023-05-08T17:51:50.876Z,26.67
2023-05-08T17:54:18.918Z,24.65
2023-05-08T17:56:46.954Z,25.05
2023-05-08T17:59:15.148Z,26.65
2023-05-08T18:01:43.295Z,26.98
2023-05-08T18:04:11.393Z,25.60
2023-05-08T18:06:40.895Z,27.17
2023-05-08T18:09:09.413Z,27.75
2023-05-08T18:11:37.673Z,27.27
2023-05-08T18:14:05.740Z,27.95
2023-05-08T18:16:36.935Z,27.05
2023-05-08T18:19:05.126Z,29.80
2023-05-08T18:21:33.236Z,30.83
2023-05-08T18:24:02.638Z,31.02
2023-05-08T18:26:30.826Z,31.25
2023-05-08T18:28:58.925Z,31.85
2023-05-08T18:31:29.811Z,31.67
2023-05-08T18:33:57.871Z,33.83
2023-05-08T18:36:25.986Z,32.45
2023-05-08T18:38:54.075Z,33.03
2023-05-08T18:41:26.464Z,34.10
2023-05-08T18:43:54.541Z,34.78
2023-05-08T18:46:22.634Z,35.63
2023-05-08T18:48:53.155Z,35.70
2023-05-08T18:51:21.224Z,34.80
2023-05-08T18:53:49.324Z,36.83
2023-05-08T18:56:19.313Z,36.08
2023-05-08T18:58:48.777Z,34.92
2023-05-08T19:01:21.203Z,34.13
2023-05-08T19:03:49.518Z,35.08
2023-05-08T19:06:17.693Z,36.47
2023-05-08T19:08:46.184Z,36.17
2023-05-08T19:11:14.243Z,35.97
2023-05-08T19:13:42.280Z,36.55
2023-05-08T19:16:14.740Z,35.80
2023-05-08T19:18:42.784Z,36.80
2023-05-08T19:21:10.889Z,38.72
2023-05-08T19:23:38.921Z,36.38
2023-05-08T19:26:07.226Z,35.63
2023-05-08T19:28:35.732Z,37.22
2023-05-08T19:31:03.988Z,38.17
2023-05-08T19:33:33.479Z,37.00
2023-05-08T19:36:01.627Z,36.75
2023-05-08T19:38:29.648Z,34.83
2023-05-08T19:41:00.670Z,38.15
2023-05-08T19:43:28.697Z,37.83
2023-05-08T19:45:57.216Z,37.13
2023-05-08T19:48:25.408Z,39.10
2023-05-08T19:50:55.155Z,36.50
2023-05-08T19:53:26.340Z,38.67
2023-05-08T19:55:54.388Z,39.70
2023-05-08T19:58:22.457Z,39.25
2023-05-08T20:00:51.849Z,41.47
2023-05-08T20:03:20.659Z,38.72
2023-05-08T20:05:49.021Z,36.72
2023-05-08T20:08:18.499Z,38.55
2023-05-08T20:10:48.974Z,37.92
2023-05-08T20:13:17.398Z,39.28
2023-05-08T20:15:45.704Z,41.28
2023-05-08T20:18:13.781Z,39.13
2023-05-08T20:20:46.253Z,39.65
2023-05-08T20:23:14.392Z,39.22
2023-05-08T20:25:46.405Z,37.30
2023-05-08T20:28:14.739Z,37.42
2023-05-08T20:30:42.853Z,38.10
2023-05-08T20:33:11.048Z,40.55
2023-05-08T20:35:39.203Z,39.47
2023-05-08T20:38:07.304Z,43.13
2023-05-08T20:40:38.203Z,40.10
2023-05-08T20:43:07.631Z,42.40
2023-05-08T20:45:35.682Z,44.90
2023-05-08T20:48:03.821Z,43.95
2023-05-08T20:50:31.985Z,42.83
2023-05-08T20:53:02.805Z,42.75
2023-05-08T20:55:30.803Z,44.20
2023-05-08T20:57:59.747Z,43.60
2023-05-08T21:00:29.699Z,40.40
2023-05-08T21:02:57.936Z,44.95
2023-05-08T21:05:26.125Z,42.08
2023-05-08T21:07:58.447Z,43.90
2023-05-08T21:10:28.644Z,43.10
2023-05-08T21:12:56.884Z,42.80
2023-05-08T21:15:25.005Z,45.97
2023-05-08T21:17:54.595Z,45.33
2023-05-08T21:20:22.745Z,42.47
2023-05-08T21:22:53.725Z,46.10
2023-05-08T21:25:22.387Z,46.13
2023-05-08T21:27:50.481Z,48.75
2023-05-08T21:30:18.699Z,47.53
2023-05-08T21:32:47.121Z,51.42
2023-05-08T21:35:16.834Z,51.72
2023-05-08T21:37:45.380Z,52.47
2023-05-08T21:40:13.632Z,52.45
2023-05-08T21:42:41.709Z,59.60
2023-05-08T21:45:10.793Z,60.05
2023-05-08T21:47:38.897Z,65.38
2023-05-08T21:50:08.283Z,66.50
2023-05-08T21:52:37.802Z,65.57
2023-05-08T21:55:08.739Z,66.60
2023-05-08T21:57:37.021Z,65.15
2023-05-08T22:00:05.503Z,61.70
2023-05-08T22:02:36.217Z,65.80
2023-05-08T22:05:04.843Z,63.05
2023-05-08T22:07:32.974Z,60.40
2023-05-08T22:10:02.482Z,55.33
2023-05-08T22:12:30.662Z,57.13
2023-05-08T22:14:58.676Z,61.90
2023-05-08T22:17:26.834Z,64.05
2023-05-08T22:19:54.932Z,63.50
2023-05-08T22:22:23.046Z,58.92
2023-05-08T22:24:51.110Z,59.42
2023-05-08T22:27:20.528Z,58.20
2023-05-08T22:29:48.605Z,58.88
2023-05-08T22:32:18.057Z,59.97
2023-05-08T22:34:46.519Z,56.22
2023-05-08T22:37:14.548Z,56.38
2023-05-08T22:39:42.628Z,56.53
2023-05-08T22:42:13.744Z,54.28
2023-05-08T22:44:43.951Z,57.15
2023-05-08T22:47:13.342Z,61.15
2023-05-08T22:49:42.447Z,60.45
2023-05-08T22:52:10.808Z,59.50
2023-05-08T22:54:38.900Z,58.35
2023-05-08T22:57:07.163Z,58.80
2023-05-08T22:59:35.187Z,57.03
2023-05-08T23:02:04.681Z,57.63
2023-05-08T23:04:33.077Z,59.20
2023-05-08T23:07:01.141Z,59.13
2023-05-08T23:09:30.860Z,55.50
2023-05-08T23:11:58.959Z,55.60
2023-05-08T23:14:26.964Z,56.53
2023-05-08T23:16:55.060Z,55.75
2023-05-08T23:19:24.520Z,53.50
2023-05-08T23:21:52.624Z,52.97
2023-05-08T23:24:20.716Z,59.05
2023-05-08T23:26:49.717Z,60.42
2023-05-08T23:29:17.822Z,56.42
2023-05-08T23:31:46.113Z,57.58
2023-05-08T23:34:14.184Z,56.17
2023-05-08T23:36:46.344Z,57.20
2023-05-08T23:39:14.444Z,58.97
2023-05-08T23:41:42.553Z,56.38
2023-05-08T23:44:11.125Z,58.05
2023-05-08T23:46:39.235Z,62.55
2023-05-08T23:49:08.201Z,61.65
2023-05-08T23:51:36.194Z,57.33
2023-05-08T23:54:05.842Z,58.88
2023-05-08T23:56:36.455Z,59.60
2023-05-08T23:59:04.494Z,58.00
